Time;durP1;ratioP1;P1;durP2;ratioP2;P2;SDS_P1;SDS_P2;PMS_P1;PMS_P2;Temp;Humidity;BMP_temperature;BMP_pressure;BME280_temperature;BME280_humidity;BME280_pressure;Samples;Min_cycle;Max_cycle;Signal;HPM_P1;HPM_P2
2022/07/23 00:00:43;;;;;;;1.02;0.80;;;;;;;;;;4990944;28;20121;-67
2022/07/23 00:03:09;;;;;;;1.70;0.90;;;;;;;;;;5001437;28;20050;-67
2022/07/23 00:05:36;;;;;;;4.45;1.10;;;;;;;;;;5009193;28;20100;-66
2022/07/23 00:08:03;;;;;;;2.05;1.08;;;;;;;;;;5003187;28;20060;-67
2022/07/23 00:10:29;;;;;;;1.45;0.75;;;;;;;;;;5010141;28;20050;-68
2022/07/23 00:12:56;;;;;;;5.00;1.30;;;;;;;;;;5002629;28;20050;-67
2022/07/23 00:15:27;;;;;;;3.13;0.90;;;;;;;;;;5010057;28;20050;-67
2022/07/23 00:17:54;;;;;;;1.63;0.88;;;;;;;;;;5003334;28;20050;-68
2022/07/23 00:20:20;;;;;;;3.47;0.90;;;;;;;;;;4988826;28;20043;-67
2022/07/23 00:22:47;;;;;;;3.05;1.08;;;;;;;;;;4992362;28;20046;-67
2022/07/23 00:25:16;;;;;;;2.78;1.30;;;;;;;;;;5009642;28;20042;-68
2022/07/23 00:27:43;;;;;;;;;;;;;;;;;;4992046;28;20086;-67
2022/07/23 00:30:10;;;;;;;2.75;0.98;;;;;;;;;;4970740;28;19937;-67
2022/07/23 00:32:47;;;;;;;0.93;0.80;;;;;;;;;;4964684;28;20141;-67
2022/07/23 00:35:13;;;;;;;2.17;1.20;;;;;;;;;;4951365;28;20051;-67
2022/07/23 00:37:40;;;;;;;1.95;1.00;;;;;;;;;;4948732;28;20063;-67
2022/07/23 00:40:07;;;;;;;1.77;0.95;;;;;;;;;;4970286;28;20113;-67
2022/07/23 00:42:34;;;;;;;1.77;1.10;;;;;;;;;;4967303;28;20192;-67
2022/07/23 00:45:00;;;;;;;3.05;1.00;;;;;;;;;;4987746;28;20114;-68
2022/07/23 00:47:28;;;;;;;1.67;1.02;;;;;;;;;;4990009;28;20078;-67
2022/07/23 00:49:56;;;;;;;1.70;1.00;;;;;;;;;;4965866;28;20057;-68
2022/07/23 00:52:23;;;;;;;1.95;1.05;;;;;;;;;;4970917;28;20055;-67
2022/07/23 00:54:49;;;;;;;2.30;0.90;;;;;;;;;;4964991;28;20063;-67
2022/07/23 00:57:16;;;;;;;1.90;1.00;;;;;;;;;;4970962;28;20051;-67
2022/07/23 00:59:43;;;;;;;4.43;1.08;;;;;;;;;;4965003;28;20055;-69
2022/07/23 01:02:09;;;;;;;2.17;1.10;;;;;;;;;;4970357;28;20046;-67
2022/07/23 01:04:36;;;;;;;3.33;1.25;;;;;;;;;;4964472;28;20051;-68
2022/07/23 01:07:04;;;;;;;0.90;0.80;;;;;;;;;;4970423;28;20059;-67
2022/07/23 01:09:31;;;;;;;3.08;0.82;;;;;;;;;;4964036;28;20055;-68
2022/07/23 01:11:59;;;;;;;2.45;0.90;;;;;;;;;;4970099;28;20051;-68
2022/07/23 01:14:26;;;;;;;1.83;0.90;;;;;;;;;;4964467;28;20098;-67
2022/07/23 01:16:54;;;;;;;2.72;1.00;;;;;;;;;;4968775;28;20390;-67
2022/07/23 01:19:20;;;;;;;1.45;0.90;;;;;;;;;;4964535;28;20062;-67
2022/07/23 01:21:48;;;;;;;1.65;0.85;;;;;;;;;;4969534;28;20066;-67
2022/07/23 01:24:18;;;;;;;1.43;0.73;;;;;;;;;;4964353;28;20082;-66
2022/07/23 01:26:46;;;;;;;1.42;0.80;;;;;;;;;;4969568;28;20146;-67
2022/07/23 01:29:12;;;;;;;1.50;0.82;;;;;;;;;;4980390;28;20057;-68
2022/07/23 01:31:39;;;;;;;2.15;1.00;;;;;;;;;;5000959;28;20049;-67
2022/07/23 01:34:06;;;;;;;2.15;0.98;;;;;;;;;;4996190;28;20050;-68
2022/07/23 01:36:33;;;;;;;1.55;0.90;;;;;;;;;;4970425;28;20050;-68
2022/07/23 01:39:00;;;;;;;1.60;1.00;;;;;;;;;;4972787;28;20054;-68
2022/07/23 01:41:29;;;;;;;2.90;1.00;;;;;;;;;;4977816;28;20054;-67
2022/07/23 01:43:55;;;;;;;1.33;0.80;;;;;;;;;;4989204;28;20060;-67
2022/07/23 01:46:22;;;;;;;1.75;0.90;;;;;;;;;;4992882;28;20049;-68
2022/07/23 01:48:50;;;;;;;3.50;1.20;;;;;;;;;;5008274;28;20077;-67
2022/07/23 01:51:16;;;;;;;1.10;0.90;;;;;;;;;;4988770;28;20058;-67
2022/07/23 01:53:43;;;;;;;2.33;1.10;;;;;;;;;;4972567;28;20133;-67
2022/07/23 01:56:14;;;;;;;2.30;0.90;;;;;;;;;;4979756;28;20060;-67
2022/07/23 01:58:42;;;;;;;3.05;1.08;;;;;;;;;;5011792;28;20056;-68
2022/07/23 02:01:09;;;;;;;1.88;0.85;;;;;;;;;;4992151;28;20058;-67
2022/07/23 02:03:37;;;;;;;1.48;0.75;;;;;;;;;;4972203;28;20058;-67
2022/07/23 02:06:03;;;;;;;2.25;1.00;;;;;;;;;;4968341;28;20054;-67
2022/07/23 02:08:31;;;;;;;1.20;0.80;;;;;;;;;;4991790;28;20046;-67
2022/07/23 02:10:58;;;;;;;2.00;0.93;;;;;;;;;;4990298;28;20050;-67
2022/07/23 02:13:24;;;;;;;2.13;1.00;;;;;;;;;;4988133;28;20050;-67
2022/07/23 02:15:53;;;;;;;2.15;1.10;;;;;;;;;;5005911;28;20054;-67
2022/07/23 02:18:20;;;;;;;3.28;0.88;;;;;;;;;;4986406;28;20046;-67
2022/07/23 02:20:46;;;;;;;1.20;0.80;;;;;;;;;;5001526;28;20123;-68
2022/07/23 02:23:13;;;;;;;2.65;1.00;;;;;;;;;;4976454;28;20136;-67
2022/07/23 02:25:40;;;;;;;1.13;0.75;;;;;;;;;;4972103;28;20065;-67
2022/07/23 02:28:06;;;;;;;4.07;1.27;;;;;;;;;;4967306;28;20050;-67
2022/07/23 02:30:33;;;;;;;2.42;0.75;;;;;;;;;;4968296;28;20070;-67
2022/07/23 02:33:01;;;;;;;2.08;0.90;;;;;;;;;;4962896;28;20097;-67
2022/07/23 02:35:27;;;;;;;1.45;0.80;;;;;;;;;;4963426;28;20047;-67
2022/07/23 02:37:55;;;;;;;1.95;1.00;;;;;;;;;;4962582;28;20069;-66
2022/07/23 02:40:21;;;;;;;2.05;0.80;;;;;;;;;;4968776;28;20046;-67
2022/07/23 02:42:48;;;;;;;0.80;0.75;;;;;;;;;;4962577;28;20042;-67
2022/07/23 02:45:14;;;;;;;2.88;0.93;;;;;;;;;;4968903;28;20050;-67
2022/07/23 02:47:43;;;;;;;1.73;0.80;;;;;;;;;;4963317;28;20058;-67
2022/07/23 02:50:11;;;;;;;1.77;0.80;;;;;;;;;;4968281;28;20082;-67
2022/07/23 02:52:38;;;;;;;0.80;0.80;;;;;;;;;;4964097;28;20070;-66
2022/07/23 02:55:05;;;;;;;1.17;0.80;;;;;;;;;;4967162;28;20098;-66
2022/07/23 02:57:32;;;;;;;2.35;0.80;;;;;;;;;;4967739;28;20058;-66
2022/07/23 02:59:59;;;;;;;0.82;0.70;;;;;;;;;;4979279;28;20061;-67
2022/07/23 03:02:25;;;;;;;1.60;0.80;;;;;;;;;;4986975;28;20129;-67
2022/07/23 03:04:52;;;;;;;2.60;0.70;;;;;;;;;;4966604;28;20054;-67
2022/07/23 03:07:21;;;;;;;1.80;0.80;;;;;;;;;;4968479;28;20137;-67
2022/07/23 03:09:48;;;;;;;0.95;0.77;;;;;;;;;;4964414;28;20046;-67
2022/07/23 03:12:14;;;;;;;1.50;0.80;;;;;;;;;;4968326;28;20065;-67
2022/07/23 03:14:42;;;;;;;1.88;0.90;;;;;;;;;;4972495;28;20131;-66
2022/07/23 03:17:09;;;;;;;1.88;0.88;;;;;;;;;;4986945;28;20046;-67
2022/07/23 03:19:36;;;;;;;1.10;0.73;;;;;;;;;;4980183;28;20058;-67
2022/07/23 03:22:03;;;;;;;1.00;0.80;;;;;;;;;;4967893;28;20074;-67
2022/07/23 03:27:11;;;;;;;1.20;0.80;;;;;;;;;;4966466;28;20058;-67
2022/07/23 03:29:38;;;;;;;1.13;0.70;;;;;;;;;;4972245;28;20121;-67
2022/07/23 03:32:05;;;;;;;0.80;0.73;;;;;;;;;;4987062;28;20059;-67
2022/07/23 03:34:31;;;;;;;1.77;0.90;;;;;;;;;;4983872;28;20089;-67
2022/07/23 03:36:58;;;;;;;1.52;0.82;;;;;;;;;;5006745;28;20185;-67
2022/07/23 03:39:24;;;;;;;3.97;1.00;;;;;;;;;;5002870;28;20074;-67
2022/07/23 03:41:52;;;;;;;1.55;0.90;;;;;;;;;;4969787;28;20054;-67
2022/07/23 03:44:21;;;;;;;2.03;0.90;;;;;;;;;;4971405;28;20056;-67
2022/07/23 03:46:47;;;;;;;;;;;;;;;;;;4979723;28;20055;-67
2022/07/23 03:49:14;;;;;;;1.33;0.70;;;;;;;;;;4984555;28;19980;-67
2022/07/23 03:51:41;;;;;;;3.33;0.77;;;;;;;;;;4981608;28;20047;-67
2022/07/23 03:54:07;;;;;;;0.77;0.77;;;;;;;;;;4988322;28;20050;-67
2022/07/23 03:56:34;;;;;;;1.25;0.90;;;;;;;;;;4997818;28;20050;-67
2022/07/23 03:59:03;;;;;;;0.63;0.63;;;;;;;;;;5010482;28;20096;-67
2022/07/23 04:01:29;;;;;;;1.58;1.00;;;;;;;;;;4991734;28;20053;-67
2022/07/23 04:03:56;;;;;;;1.55;0.88;;;;;;;;;;4989400;28;20085;-67
2022/07/23 04:06:23;;;;;;;1.00;0.77;;;;;;;;;;4990716;28;20061;-67
2022/07/23 04:08:50;;;;;;;0.90;0.73;;;;;;;;;;4989896;28;20069;-67
2022/07/23 04:11:17;;;;;;;1.52;0.90;;;;;;;;;;4988107;28;20140;-67
2022/07/23 04:13:43;;;;;;;0.88;0.70;;;;;;;;;;4993996;28;20046;-67
2022/07/23 04:16:12;;;;;;;1.33;0.80;;;;;;;;;;4988193;28;20073;-67
2022/07/23 04:18:39;;;;;;;1.08;0.70;;;;;;;;;;5009693;28;20049;-66
2022/07/23 04:21:08;;;;;;;0.73;0.73;;;;;;;;;;4996153;28;20061;-67
2022/07/23 04:23:34;;;;;;;2.67;0.70;;;;;;;;;;4974243;28;20113;-67
2022/07/23 04:26:01;;;;;;;1.30;0.85;;;;;;;;;;4990321;28;20113;-66
2022/07/23 04:28:27;;;;;;;0.80;0.80;;;;;;;;;;4999702;28;20050;-66
2022/07/23 04:30:56;;;;;;;1.00;0.80;;;;;;;;;;5009195;28;20300;-66
2022/07/23 04:33:24;;;;;;;1.10;0.88;;;;;;;;;;4975824;28;20054;-66
2022/07/23 04:35:51;;;;;;;1.65;0.75;;;;;;;;;;4974388;28;20142;-66
2022/07/23 04:38:18;;;;;;;1.10;0.80;;;;;;;;;;4991836;28;20058;-67
2022/07/23 04:40:44;;;;;;;1.45;0.93;;;;;;;;;;5010617;28;20050;-66
2022/07/23 04:43:11;;;;;;;1.33;0.88;;;;;;;;;;4996065;28;20057;-66
2022/07/23 04:45:37;;;;;;;0.95;0.73;;;;;;;;;;4994437;28;20060;-66
2022/07/23 04:48:05;;;;;;;1.45;0.90;;;;;;;;;;4988882;28;20117;-66
2022/07/23 04:50:33;;;;;;;1.90;1.00;;;;;;;;;;4993688;28;20064;-66
2022/07/23 04:52:59;;;;;;;3.47;0.95;;;;;;;;;;4981416;28;20496;-67
2022/07/23 04:55:26;;;;;;;1.65;0.95;;;;;;;;;;4974032;28;20121;-66
2022/07/23 04:57:52;;;;;;;1.35;0.82;;;;;;;;;;4970797;28;20058;-66
2022/07/23 05:00:19;;;;;;;1.67;0.90;;;;;;;;;;5009198;28;20065;-66
2022/07/23 05:02:45;;;;;;;1.92;0.80;;;;;;;;;;5002629;28;20053;-66
2022/07/23 05:05:12;;;;;;;1.20;0.85;;;;;;;;;;4989816;28;20058;-66
2022/07/23 05:07:40;;;;;;;5.10;1.63;;;;;;;;;;4990795;28;20053;-66
2022/07/23 05:10:07;;;;;;;3.05;1.73;;;;;;;;;;4987804;28;20058;-66
2022/07/23 05:12:34;;;;;;;3.13;1.70;;;;;;;;;;4992383;28;20062;-66
2022/07/23 05:15:00;;;;;;;1.58;1.08;;;;;;;;;;4988504;28;20068;-66
2022/07/23 05:17:33;;;;;;;2.90;1.60;;;;;;;;;;4993813;28;20042;-66
2022/07/23 05:19:59;;;;;;;2.95;1.10;;;;;;;;;;4982829;28;20038;-66
2022/07/23 05:22:26;;;;;;;2.05;0.85;;;;;;;;;;4973001;28;20098;-66
2022/07/23 05:24:54;;;;;;;1.52;0.80;;;;;;;;;;4979210;28;20100;-66
2022/07/23 05:27:21;;;;;;;2.80;1.13;;;;;;;;;;4993236;28;20054;-66
2022/07/23 05:29:47;;;;;;;2.65;1.20;;;;;;;;;;4982738;28;20066;-67
2022/07/23 05:32:14;;;;;;;3.83;2.15;;;;;;;;;;4989376;28;20054;-66
2022/07/23 05:34:40;;;;;;;1.75;1.13;;;;;;;;;;4968044;28;20121;-66
2022/07/23 05:37:07;;;;;;;2.15;1.20;;;;;;;;;;4969847;28;20051;-66
2022/07/23 05:39:34;;;;;;;2.63;1.10;;;;;;;;;;4966874;28;20065;-66
2022/07/23 05:42:02;;;;;;;1.48;1.00;;;;;;;;;;4987160;28;20046;-66
2022/07/23 05:44:28;;;;;;;3.47;0.88;;;;;;;;;;4983995;28;20065;-66
2022/07/23 05:46:57;;;;;;;2.33;1.02;;;;;;;;;;4989263;28;20058;-66
2022/07/23 05:49:24;;;;;;;3.47;0.90;;;;;;;;;;4989125;28;20138;-66
2022/07/23 05:51:50;;;;;;;2.55;1.10;;;;;;;;;;4964148;28;20055;-67
2022/07/23 05:54:17;;;;;;;1.02;0.82;;;;;;;;;;4969585;28;20061;-66
2022/07/23 05:56:44;;;;;;;1.70;1.02;;;;;;;;;;4972929;28;20053;-66
2022/07/23 05:59:12;;;;;;;1.65;0.90;;;;;;;;;;4990069;28;20074;-66
2022/07/23 06:01:39;;;;;;;5.05;1.45;;;;;;;;;;4969641;28;20065;-67
2022/07/23 06:04:05;;;;;;;3.92;2.00;;;;;;;;;;4970260;28;20066;-67
2022/07/23 06:06:32;;;;;;;9.18;1.70;;;;;;;;;;4986952;28;20128;-66
2022/07/23 06:08:59;;;;;;;2.53;1.02;;;;;;;;;;4972076;28;20061;-67
2022/07/23 06:11:25;;;;;;;1.20;0.80;;;;;;;;;;4964697;28;20058;-66
2022/07/23 06:13:52;;;;;;;3.30;1.20;;;;;;;;;;4970663;28;20114;-66
2022/07/23 06:16:20;;;;;;;4.00;1.52;;;;;;;;;;4971631;28;20046;-67
2022/07/23 06:18:46;;;;;;;4.47;1.83;;;;;;;;;;4988299;28;20046;-66
2022/07/23 06:21:13;;;;;;;6.00;1.80;;;;;;;;;;4978433;28;20050;-66
2022/07/23 06:23:41;;;;;;;6.15;1.55;;;;;;;;;;4970366;28;20047;-67
2022/07/23 06:26:07;;;;;;;3.53;1.45;;;;;;;;;;4965416;28;20051;-66
2022/07/23 06:28:34;;;;;;;1.27;0.98;;;;;;;;;;4990769;28;20050;-66
2022/07/23 06:31:00;;;;;;;6.50;1.90;;;;;;;;;;4991866;28;20053;-66
2022/07/23 06:33:29;;;;;;;4.60;1.80;;;;;;;;;;4997252;28;20053;-66
2022/07/23 06:35:56;;;;;;;5.57;1.98;;;;;;;;;;4992030;28;20062;-66
2022/07/23 06:38:23;;;;;;;9.15;2.58;;;;;;;;;;4985717;28;20064;-66
2022/07/23 06:40:50;;;;;;;5.30;2.00;;;;;;;;;;4991150;28;20061;-66
2022/07/23 06:43:16;;;;;;;8.23;2.05;;;;;;;;;;4973077;28;20062;-66
2022/07/23 06:45:43;;;;;;;1.33;0.88;;;;;;;;;;4977322;28;20053;-66
2022/07/23 06:48:10;;;;;;;2.10;1.00;;;;;;;;;;4983294;28;20605;-66
2022/07/23 06:50:38;;;;;;;1.10;0.82;;;;;;;;;;4987039;28;20120;-66
2022/07/23 06:53:05;;;;;;;1.58;1.00;;;;;;;;;;4981201;28;20065;-66
2022/07/23 06:55:32;;;;;;;1.98;1.00;;;;;;;;;;4988973;28;20054;-67
2022/07/23 06:57:58;;;;;;;8.18;1.70;;;;;;;;;;4982053;28;20133;-66
2022/07/23 07:00:26;;;;;;;3.42;1.70;;;;;;;;;;4988735;28;20161;-66
2022/07/23 07:02:54;;;;;;;4.53;1.83;;;;;;;;;;4982153;28;20100;-66
2022/07/23 07:05:20;;;;;;;6.82;1.75;;;;;;;;;;4989279;28;20073;-67
2022/07/23 07:07:49;;;;;;;2.72;1.58;;;;;;;;;;4981131;28;20054;-66
2022/07/23 07:10:17;;;;;;;2.88;1.65;;;;;;;;;;4988024;28;20062;-66
2022/07/23 07:12:44;;;;;;;1.65;1.00;;;;;;;;;;4984505;28;20053;-66
2022/07/23 07:15:11;;;;;;;5.10;1.52;;;;;;;;;;4986854;28;20124;-67
2022/07/23 07:17:39;;;;;;;1.48;0.90;;;;;;;;;;4990626;28;20050;-66
2022/07/23 07:20:06;;;;;;;2.05;1.00;;;;;;;;;;4979626;28;20060;-66
2022/07/23 07:22:32;;;;;;;1.50;0.90;;;;;;;;;;4978620;28;20046;-66
2022/07/23 07:25:00;;;;;;;7.00;1.55;;;;;;;;;;4982214;28;20053;-66
2022/07/23 07:27:27;;;;;;;1.65;1.00;;;;;;;;;;4988025;28;20089;-66
2022/07/23 07:29:53;;;;;;;3.22;1.45;;;;;;;;;;4981860;28;20054;-67
2022/07/23 07:32:20;;;;;;;1.33;0.77;;;;;;;;;;4988293;28;20056;-66
2022/07/23 07:34:46;;;;;;;5.45;1.50;;;;;;;;;;4980016;28;20054;-66
2022/07/23 07:37:15;;;;;;;4.82;1.50;;;;;;;;;;4979726;28;20095;-66
2022/07/23 07:39:42;;;;;;;4.45;1.80;;;;;;;;;;4981667;28;20050;-66
2022/07/23 07:42:10;;;;;;;6.82;2.33;;;;;;;;;;4986873;28;20082;-66
2022/07/23 07:44:37;;;;;;;2.45;1.55;;;;;;;;;;4984726;28;20041;-66
2022/07/23 07:47:03;;;;;;;6.10;2.28;;;;;;;;;;4993272;28;20050;-66
2022/07/23 07:49:30;;;;;;;3.05;1.02;;;;;;;;;;4987512;28;20383;-65
2022/07/23 07:51:57;;;;;;;2.58;1.33;;;;;;;;;;4992031;28;20061;-66
2022/07/23 07:54:23;;;;;;;1.80;1.02;;;;;;;;;;4988591;28;20054;-66
2022/07/23 07:56:50;;;;;;;4.63;2.17;;;;;;;;;;4975999;28;20057;-66
2022/07/23 07:59:18;;;;;;;3.10;1.67;;;;;;;;;;5009704;28;20056;-66
2022/07/23 08:01:45;;;;;;;4.80;2.13;;;;;;;;;;5004024;28;20056;-66
2022/07/23 08:04:11;;;;;;;6.20;2.33;;;;;;;;;;5012553;28;20080;-67
2022/07/23 08:06:49;;;;;;;4.68;2.15;;;;;;;;;;4976017;28;20046;-66
2022/07/23 08:09:15;;;;;;;6.43;2.17;;;;;;;;;;4973825;28;20583;-66
2022/07/23 08:11:42;;;;;;;8.73;2.97;;;;;;;;;;4968660;28;20116;-68
2022/07/23 08:14:09;;;;;;;4.05;1.80;;;;;;;;;;4974141;28;20069;-66
2022/07/23 08:16:37;;;;;;;1.88;1.15;;;;;;;;;;4979593;28;20054;-66
2022/07/23 08:19:03;;;;;;;3.70;1.52;;;;;;;;;;4993439;28;20066;-66
2022/07/23 08:21:30;;;;;;;4.05;1.67;;;;;;;;;;4990963;28;20054;-65
2022/07/23 08:23:56;;;;;;;6.78;2.67;;;;;;;;;;5009288;28;20112;-65
2022/07/23 08:26:25;;;;;;;3.33;1.67;;;;;;;;;;4999995;28;20057;-65
2022/07/23 08:28:51;;;;;;;9.43;2.92;;;;;;;;;;4989784;28;20050;-65
2022/07/23 08:31:18;;;;;;;6.35;2.40;;;;;;;;;;4979946;28;20047;-65
2022/07/23 08:33:46;;;;;;;7.72;2.70;;;;;;;;;;4985823;28;20068;-66
2022/07/23 08:36:13;;;;;;;9.98;2.50;;;;;;;;;;4982006;28;20063;-67
2022/07/23 08:38:43;;;;;;;3.92;2.00;;;;;;;;;;4987165;28;20053;-66
2022/07/23 08:41:09;;;;;;;5.93;2.33;;;;;;;;;;4983865;28;20055;-65
2022/07/23 08:43:40;;;;;;;4.07;2.05;;;;;;;;;;4985688;28;20061;-65
2022/07/23 08:46:06;;;;;;;6.05;1.90;;;;;;;;;;4988520;28;20059;-66
2022/07/23 08:48:34;;;;;;;4.40;2.05;;;;;;;;;;4981236;28;20057;-66
2022/07/23 08:51:03;;;;;;;2.60;1.37;;;;;;;;;;4987942;28;20053;-65
2022/07/23 08:53:30;;;;;;;2.67;1.30;;;;;;;;;;4980792;28;20056;-66
2022/07/23 08:55:57;;;;;;;5.43;2.60;;;;;;;;;;4987389;28;20082;-66
2022/07/23 08:58:24;;;;;;;2.20;1.17;;;;;;;;;;4982213;28;20108;-66
2022/07/23 09:00:51;;;;;;;3.70;1.58;;;;;;;;;;4985921;28;20058;-65
2022/07/23 09:03:19;;;;;;;5.60;2.38;;;;;;;;;;4979054;28;20058;-65
2022/07/23 09:05:45;;;;;;;3.72;1.42;;;;;;;;;;4987955;28;20050;-65
2022/07/23 09:08:16;;;;;;;5.45;2.05;;;;;;;;;;4979612;28;20050;-66
2022/07/23 09:10:46;;;;;;;5.47;2.45;;;;;;;;;;4982131;28;20137;-66
2022/07/23 09:13:30;;;;;;;7.22;2.33;;;;;;;;;;4980756;28;20144;-67
2022/07/23 09:15:57;;;;;;;5.85;2.25;;;;;;;;;;4984976;28;20050;-66
2022/07/23 09:18:34;;;;;;;9.80;2.10;;;;;;;;;;4979523;28;20053;-65
2022/07/23 09:21:18;;;;;;;3.28;1.70;;;;;;;;;;4987511;28;20137;-65
2022/07/23 09:23:46;;;;;;;8.48;2.58;;;;;;;;;;4980926;28;20051;-66
2022/07/23 09:26:20;;;;;;;4.72;2.50;;;;;;;;;;4986177;28;20050;-67
2022/07/23 09:28:57;;;;;;;6.43;2.33;;;;;;;;;;4977931;28;20076;-64
2022/07/23 09:31:24;;;;;;;4.45;1.80;;;;;;;;;;4986774;28;20035;-65
2022/07/23 09:33:52;;;;;;;2.95;1.67;;;;;;;;;;4981289;28;20049;-66
2022/07/23 09:36:27;;;;;;;4.88;2.20;;;;;;;;;;4987201;28;20196;-65
2022/07/23 09:38:55;;;;;;;7.45;3.03;;;;;;;;;;4978243;28;20113;-65
2022/07/23 09:41:23;;;;;;;4.03;1.50;;;;;;;;;;4986221;28;20051;-65
2022/07/23 09:43:55;;;;;;;6.80;1.52;;;;;;;;;;4981034;28;20058;-64
2022/07/23 09:46:23;;;;;;;4.30;1.55;;;;;;;;;;4986546;28;20165;-63
2022/07/23 09:48:51;;;;;;;;;;;;;;;;;;4983348;28;20055;-63
2022/07/23 09:51:19;;;;;;;5.20;2.33;;;;;;;;;;4996864;28;19933;-63
2022/07/23 09:53:46;;;;;;;9.15;2.25;;;;;;;;;;4987175;28;20053;-63
2022/07/23 09:56:14;;;;;;;6.22;2.33;;;;;;;;;;4978598;28;20145;-64
2022/07/23 09:58:45;;;;;;;;;;;;;;;;;;4986648;28;20077;-63
2022/07/23 10:01:13;;;;;;;4.03;1.40;;;;;;;;;;4981149;28;19929;-63
2022/07/23 10:03:41;;;;;;;5.00;1.88;;;;;;;;;;4983242;28;20051;-63
2022/07/23 10:06:09;;;;;;;7.88;2.78;;;;;;;;;;4977568;28;20077;-63
2022/07/23 10:08:36;;;;;;;6.35;2.00;;;;;;;;;;4988178;28;20054;-63
2022/07/23 10:11:03;;;;;;;3.05;1.77;;;;;;;;;;4982264;28;20065;-63
2022/07/23 10:16:27;;;;;;;5.22;2.10;;;;;;;;;;4902876;29;20067;-63
2022/07/23 10:18:53;;;;;;;5.38;1.55;;;;;;;;;;4983386;28;20108;-64
2022/07/23 10:21:25;;;;;;;6.50;2.00;;;;;;;;;;4985824;28;20121;-64
2022/07/23 10:23:59;;;;;;;6.40;2.35;;;;;;;;;;4972028;28;20133;-64
2022/07/23 10:26:31;;;;;;;5.88;2.13;;;;;;;;;;4971769;28;20082;-63
2022/07/23 10:29:08;;;;;;;7.75;2.30;;;;;;;;;;4973535;28;20061;-64
2022/07/23 10:31:42;;;;;;;4.93;1.80;;;;;;;;;;4981374;28;20054;-63
2022/07/23 10:34:11;;;;;;;10.98;2.05;;;;;;;;;;4988672;28;20046;-63
2022/07/23 10:36:43;;;;;;;3.30;1.70;;;;;;;;;;4978158;28;20050;-64
2022/07/23 10:39:15;;;;;;;4.40;2.03;;;;;;;;;;4968592;28;20054;-63
2022/07/23 10:41:42;;;;;;;3.67;1.65;;;;;;;;;;4971083;28;20062;-64
2022/07/23 10:44:12;;;;;;;3.53;1.92;;;;;;;;;;4987605;28;20056;-63
2022/07/23 10:46:53;;;;;;;6.35;2.03;;;;;;;;;;4983089;28;20122;-63
2022/07/23 10:49:25;;;;;;;12.82;3.08;;;;;;;;;;4987851;28;20060;-63
2022/07/23 10:52:10;;;;;;;7.05;1.50;;;;;;;;;;4982475;28;20097;-63
2022/07/23 10:54:36;;;;;;;7.75;2.10;;;;;;;;;;4987840;28;20054;-63
2022/07/23 10:57:08;;;;;;;4.25;1.65;;;;;;;;;;4982318;28;20050;-64
2022/07/23 10:59:53;;;;;;;5.22;1.40;;;;;;;;;;4992977;28;20045;-64
2022/07/23 11:02:25;;;;;;;2.38;1.48;;;;;;;;;;4999693;28;20143;-63
2022/07/23 11:04:53;;;;;;;3.22;1.30;;;;;;;;;;5007246;28;20061;-63
2022/07/23 11:07:19;;;;;;;5.95;2.28;;;;;;;;;;4999505;28;20049;-63
2022/07/23 11:09:47;;;;;;;8.43;2.80;;;;;;;;;;5007001;28;20065;-63
2022/07/23 11:12:32;;;;;;;5.07;2.03;;;;;;;;;;4999476;28;20049;-64
2022/07/23 11:14:59;;;;;;;4.22;1.90;;;;;;;;;;4987946;28;20308;-64
2022/07/23 11:17:28;;;;;;;6.68;2.03;;;;;;;;;;4983106;28;20061;-63
2022/07/23 11:20:15;;;;;;;6.30;2.63;;;;;;;;;;4990074;28;20135;-63
2022/07/23 11:22:47;;;;;;;4.07;1.83;;;;;;;;;;5001923;28;20049;-64
2022/07/23 11:25:14;;;;;;;6.70;2.00;;;;;;;;;;4991912;28;20070;-63
2022/07/23 11:27:42;;;;;;;4.65;1.80;;;;;;;;;;4988126;28;20073;-63
2022/07/23 11:30:09;;;;;;;4.32;1.67;;;;;;;;;;4972114;28;20054;-64
2022/07/23 11:32:42;;;;;;;6.05;1.55;;;;;;;;;;4973314;28;20118;-64
2022/07/23 11:35:27;;;;;;;1.88;1.13;;;;;;;;;;4968140;28;20059;-63
2022/07/23 11:37:58;;;;;;;5.68;2.50;;;;;;;;;;4972350;28;20081;-64
2022/07/23 11:40:26;;;;;;;6.75;2.78;;;;;;;;;;4998762;28;20057;-65
2022/07/23 11:42:54;;;;;;;3.83;1.60;;;;;;;;;;5010401;28;20146;-64
2022/07/23 11:45:20;;;;;;;6.10;1.83;;;;;;;;;;4986811;28;20054;-64
2022/07/23 11:47:49;;;;;;;3.95;1.92;;;;;;;;;;4990830;28;20046;-65
2022/07/23 11:50:15;;;;;;;3.10;1.38;;;;;;;;;;4984607;28;20054;-65
2022/07/23 11:52:42;;;;;;;6.80;1.60;;;;;;;;;;4991477;28;20146;-64
2022/07/23 11:55:09;;;;;;;6.38;2.30;;;;;;;;;;4984500;28;20138;-65
2022/07/23 11:57:37;;;;;;;6.43;2.27;;;;;;;;;;4982534;28;20046;-64
2022/07/23 12:00:07;;;;;;;10.27;2.55;;;;;;;;;;4976267;28;20101;-65
2022/07/23 12:02:34;;;;;;;5.18;2.08;;;;;;;;;;4978164;28;20058;-64
2022/07/23 12:10:55;;;;;;;4.07;1.45;;;;;;;;;;4971283;28;20055;-65
2022/07/23 12:13:22;;;;;;;;;;;;;;;;;;4988286;28;20136;-65
2022/07/23 12:15:50;;;;;;;3.97;1.63;;;;;;;;;;4977184;28;19930;-65
2022/07/23 12:18:18;;;;;;;3.42;1.40;;;;;;;;;;4986553;28;20096;-65
2022/07/23 12:20:46;;;;;;;3.58;1.30;;;;;;;;;;4981203;28;20113;-64
2022/07/23 12:23:13;;;;;;;4.35;1.65;;;;;;;;;;4983927;28;20061;-65
2022/07/23 12:25:41;;;;;;;4.55;1.35;;;;;;;;;;4988125;28;20085;-65
2022/07/23 12:28:10;;;;;;;5.18;1.40;;;;;;;;;;4978529;28;20057;-64
2022/07/23 12:30:39;;;;;;;2.72;1.15;;;;;;;;;;4984249;28;20100;-64
2022/07/23 12:33:11;;;;;;;3.00;1.30;;;;;;;;;;4976333;28;20070;-64
2022/07/23 12:35:40;;;;;;;3.10;1.20;;;;;;;;;;4985743;28;20058;-64
2022/07/23 12:38:07;;;;;;;6.55;1.33;;;;;;;;;;4977368;28;20180;-64
2022/07/23 12:40:36;;;;;;;2.80;1.30;;;;;;;;;;4986590;28;20060;-65
2022/07/23 12:43:04;;;;;;;2.05;1.30;;;;;;;;;;4984673;28;20050;-64
2022/07/23 12:45:45;;;;;;;3.00;0.98;;;;;;;;;;4981999;28;20054;-66
2022/07/23 12:48:16;;;;;;;2.97;1.02;;;;;;;;;;4985260;28;20054;-66
2022/07/23 12:50:45;;;;;;;4.70;2.20;;;;;;;;;;4976613;28;20057;-66
2022/07/23 12:53:13;;;;;;;4.95;1.58;;;;;;;;;;4985988;28;20061;-66
2022/07/23 12:55:40;;;;;;;;;;;;;;;;;;4990364;28;20061;-66
2022/07/23 12:58:10;;;;;;;2.75;1.40;;;;;;;;;;4986000;28;19926;-66
2022/07/23 13:00:52;;;;;;;4.45;1.63;;;;;;;;;;4976316;28;20173;-66
2022/07/23 13:03:23;;;;;;;3.40;1.73;;;;;;;;;;4984753;28;20065;-66
2022/07/23 13:05:49;;;;;;;3.92;1.83;;;;;;;;;;4978507;28;20078;-66
2022/07/23 13:08:16;;;;;;;10.30;1.98;;;;;;;;;;4984952;28;20054;-66
2022/07/23 13:10:43;;;;;;;6.00;1.80;;;;;;;;;;4986214;28;20078;-66
2022/07/23 13:13:10;;;;;;;5.32;1.45;;;;;;;;;;4974838;28;20054;-65
2022/07/23 13:15:37;;;;;;;5.88;2.05;;;;;;;;;;4986962;28;20150;-62
2022/07/23 13:18:05;;;;;;;3.42;1.98;;;;;;;;;;4964842;28;20141;-62
2022/07/23 13:20:33;;;;;;;5.85;3.38;;;;;;;;;;4986804;28;20054;-64
2022/07/23 13:23:00;;;;;;;6.03;2.72;;;;;;;;;;4981354;28;20122;-64
2022/07/23 13:25:27;;;;;;;12.15;5.78;;;;;;;;;;4986738;28;20125;-63
2022/07/23 13:27:54;;;;;;;9.93;4.95;;;;;;;;;;4979969;28;20046;-64
2022/07/23 13:30:20;;;;;;;9.93;4.78;;;;;;;;;;4986561;28;20054;-64
2022/07/23 13:32:48;;;;;;;6.70;2.47;;;;;;;;;;4981365;28;20042;-64
2022/07/23 13:35:16;;;;;;;9.57;4.07;;;;;;;;;;4985810;28;20061;-65
2022/07/23 13:37:49;;;;;;;7.40;2.97;;;;;;;;;;4987133;28;20054;-64
2022/07/23 13:40:15;;;;;;;8.55;4.07;;;;;;;;;;4984735;28;20108;-65
2022/07/23 13:42:42;;;;;;;7.18;1.95;;;;;;;;;;4987554;28;20069;-65
2022/07/23 13:45:08;;;;;;;4.78;2.45;;;;;;;;;;4979967;28;20052;-64
2022/07/23 13:47:35;;;;;;;10.20;3.42;;;;;;;;;;4981955;28;20141;-63
2022/07/23 13:50:02;;;;;;;8.45;3.17;;;;;;;;;;4979482;28;20050;-63
2022/07/23 13:52:30;;;;;;;5.55;2.33;;;;;;;;;;4985420;28;20046;-64
2022/07/23 13:54:56;;;;;;;4.00;2.35;;;;;;;;;;4979836;28;20065;-63
2022/07/23 13:57:23;;;;;;;5.40;2.00;;;;;;;;;;4986868;28;20078;-64
2022/07/23 13:59:50;;;;;;;4.97;2.63;;;;;;;;;;4979749;28;20059;-64
2022/07/23 14:02:17;;;;;;;6.18;2.65;;;;;;;;;;4985879;28;20065;-64
2022/07/23 14:04:44;;;;;;;5.17;2.47;;;;;;;;;;4978933;28;20073;-64
2022/07/23 14:07:11;;;;;;;6.90;2.83;;;;;;;;;;4987260;28;20313;-63
2022/07/23 14:09:40;;;;;;;5.13;2.22;;;;;;;;;;4971897;28;20104;-64
2022/07/23 14:12:07;;;;;;;4.78;2.15;;;;;;;;;;4985559;28;20153;-64
2022/07/23 14:14:34;;;;;;;5.07;2.30;;;;;;;;;;4979274;28;20054;-63
2022/07/23 14:17:01;;;;;;;4.00;2.03;;;;;;;;;;4985859;28;20120;-64
2022/07/23 14:19:28;;;;;;;3.80;2.10;;;;;;;;;;4980077;28;20054;-64
2022/07/23 14:21:54;;;;;;;2.85;1.67;;;;;;;;;;4983865;28;20050;-64
2022/07/23 14:24:21;;;;;;;3.05;1.65;;;;;;;;;;4985989;28;20061;-64
2022/07/23 14:26:50;;;;;;;6.93;2.17;;;;;;;;;;4979313;28;20132;-64
2022/07/23 14:29:17;;;;;;;8.05;2.50;;;;;;;;;;4978157;28;20058;-64
2022/07/23 14:31:43;;;;;;;7.18;2.40;;;;;;;;;;4958768;28;20059;-63
2022/07/23 14:34:11;;;;;;;5.45;2.45;;;;;;;;;;4967407;28;20090;-64
2022/07/23 14:36:39;;;;;;;6.47;2.40;;;;;;;;;;4959132;28;20137;-64
2022/07/23 14:39:08;;;;;;;4.07;1.67;;;;;;;;;;4965334;28;20055;-63
2022/07/23 14:41:35;;;;;;;5.80;2.00;;;;;;;;;;4958874;28;20055;-64
2022/07/23 14:44:03;;;;;;;5.67;2.40;;;;;;;;;;4964796;28;20061;-64
2022/07/23 14:46:30;;;;;;;;;;;;;;;;;;4960137;28;20119;-64
2022/07/23 14:48:56;;;;;;;5.57;2.00;;;;;;;;;;4964823;28;19932;-64
2022/07/23 14:51:23;;;;;;;7.80;2.22;;;;;;;;;;4960224;28;20051;-64
2022/07/23 14:53:50;;;;;;;3.90;1.73;;;;;;;;;;4966603;28;20051;-64
2022/07/23 14:56:16;;;;;;;3.67;2.00;;;;;;;;;;4962629;28;20118;-64
2022/07/23 14:58:43;;;;;;;3.67;1.98;;;;;;;;;;4964016;28;20058;-64
2022/07/23 15:01:12;;;;;;;7.63;2.10;;;;;;;;;;4958754;28;20061;-63